Wetterdaten: Woche 20.10.14 - 26.10.14 (KW43)
Datum Zeit Temperatur Luftfeuchte Luftdruck Niederschlag Windrichtung Sonnenschein Solar Wind
20.10.2014 00:00 13,7 C 91 % 1020,3 hPa 0,0 l/m SW 0,00 h 0 W/m 3,4 km/h (1 Bft)
20.10.2014 01:00 13,0 C 90 % 1020,4 hPa 0,0 l/m SW 0,00 h 0 W/m 4,4 km/h (1 Bft)
20.10.2014 02:00 12,4 C 91 % 1020,6 hPa 0,0 l/m SW 0,00 h 0 W/m 0,8 km/h (0 Bft)
20.10.2014 03:00 11,7 C 91 % 1020,5 hPa 0,0 l/m N 0,00 h 0 W/m 0,0 km/h (0 Bft)
20.10.2014 04:00 11,1 C 93 % 1020,0 hPa 0,0 l/m N 0,00 h 0 W/m 1,3 km/h (1 Bft)
20.10.2014 05:00 11,2 C 95 % 1019,6 hPa 0,0 l/m N 0,00 h 0 W/m 1,9 km/h (1 Bft)
20.10.2014 06:00 11,2 C 96 % 1019,3 hPa 0,0 l/m N 0,00 h 0 W/m 1,1 km/h (0 Bft)
20.10.2014 07:00 10,7 C 95 % 1019,4 hPa 0,0 l/m N 0,00 h 0 W/m 0,7 km/h (0 Bft)
20.10.2014 08:00 10,3 C 96 % 1019,4 hPa 0,0 l/m N 0,00 h 34 W/m 1,1 km/h (0 Bft)
20.10.2014 09:00 12,6 C 94 % 1019,6 hPa 0,0 l/m N 0,42 h 130 W/m 1,1 km/h (0 Bft)
20.10.2014 10:00 14,9 C 87 % 1019,5 hPa 0,0 l/m SW 0,33 h 213 W/m 7,4 km/h (2 Bft)
20.10.2014 11:00 16,0 C 84 % 1019,1 hPa 0,0 l/m S-SW 0,33 h 265 W/m 13,3 km/h (3 Bft)
20.10.2014 12:00 17,4 C 83 % 1018,3 hPa 0,0 l/m SW 0,25 h 244 W/m 18,6 km/h (3 Bft)
20.10.2014 13:00 18,3 C 82 % 1017,5 hPa 0,0 l/m S-SW 0,58 h 389 W/m 17,4 km/h (3 Bft)
20.10.2014 14:00 19,4 C 79 % 1016,6 hPa 0,0 l/m SW 0,42 h 267 W/m 17,3 km/h (3 Bft)
20.10.2014 15:00 19,8 C 78 % 1016,0 hPa 0,0 l/m SW 0,33 h 213 W/m 15,3 km/h (3 Bft)
20.10.2014 16:00 19,6 C 78 % 1015,5 hPa 0,0 l/m W-SW 0,33 h 135 W/m 16,6 km/h (3 Bft)
20.10.2014 17:00 18,7 C 82 % 1015,0 hPa 0,0 l/m W-SW 0,00 h 36 W/m 11,0 km/h (2 Bft)
20.10.2014 18:00 18,2 C 84 % 1014,9 hPa 0,0 l/m W-SW 0,00 h 6 W/m 9,7 km/h (2 Bft)
20.10.2014 19:00 17,6 C 86 % 1014,8 hPa 0,0 l/m W-SW 0,00 h 0 W/m 8,2 km/h (2 Bft)
20.10.2014 20:00 16,7 C 87 % 1014,7 hPa 0,0 l/m N 0,00 h 0 W/m 1,3 km/h (1 Bft)
20.10.2014 21:00 16,0 C 91 % 1014,9 hPa 1,0 l/m NW 0,00 h 0 W/m 3,7 km/h (1 Bft)
20.10.2014 22:00 15,5 C 95 % 1014,4 hPa 1,2 l/m SW 0,00 h 0 W/m 6,3 km/h (2 Bft)
20.10.2014 23:00 15,2 C 97 % 1014,2 hPa 1,2 l/m SW 0,00 h 0 W/m 12,6 km/h (3 Bft)
21.10.2014 00:00 14,6 C 97 % 1013,6 hPa 1,8 l/m W-SW 0,00 h 0 W/m 13,7 km/h (3 Bft)
21.10.2014 01:00 14,3 C 97 % 1013,5 hPa 0,2 l/m SW 0,00 h 0 W/m 12,1 km/h (2 Bft)
21.10.2014 02:00 14,0 C 97 % 1013,7 hPa 1,2 l/m W-SW 0,00 h 0 W/m 14,7 km/h (3 Bft)
21.10.2014 03:00 13,7 C 97 % 1013,4 hPa 4,4 l/m W-NW 0,00 h 0 W/m 6,0 km/h (2 Bft)
21.10.2014 04:00 13,6 C 98 % 1013,0 hPa 0,0 l/m W 0,00 h 0 W/m 5,9 km/h (2 Bft)
21.10.2014 05:00 13,4 C 98 % 1012,5 hPa 0,4 l/m W 0,00 h 0 W/m 3,1 km/h (1 Bft)
21.10.2014 06:00 13,4 C 98 % 1011,8 hPa 1,2 l/m N 0,00 h 0 W/m 1,6 km/h (1 Bft)
21.10.2014 07:00 13,3 C 98 % 1011,5 hPa 0,0 l/m W 0,00 h 6 W/m 4,9 km/h (1 Bft)
21.10.2014 08:00 13,2 C 98 % 1011,6 hPa 0,0 l/m W-SW 0,08 h 25 W/m 14,0 km/h (3 Bft)
21.10.2014 09:00 13,3 C 98 % 1011,5 hPa 0,0 l/m W-SW 0,00 h 33 W/m 14,5 km/h (3 Bft)
21.10.2014 10:00 13,7 C 97 % 1011,4 hPa 0,0 l/m W-SW 0,00 h 106 W/m 18,4 km/h (3 Bft)
21.10.2014 11:00 14,7 C 92 % 1011,1 hPa 0,0 l/m W-SW 0,42 h 263 W/m 22,0 km/h (4 Bft)
21.10.2014 12:00 15,9 C 85 % 1010,1 hPa 0,0 l/m W-SW 0,75 h 446 W/m 25,3 km/h (4 Bft)
21.10.2014 13:00 16,2 C 77 % 1009,2 hPa 0,0 l/m W-SW 0,08 h 217 W/m 23,1 km/h (4 Bft)
21.10.2014 14:00 16,6 C 73 % 1008,0 hPa 0,0 l/m W-SW 0,17 h 217 W/m 24,7 km/h (4 Bft)
21.10.2014 15:00 16,9 C 69 % 1006,8 hPa 0,0 l/m SW 0,67 h 332 W/m 33,4 km/h (5 Bft)
21.10.2014 16:00 16,4 C 62 % 1006,3 hPa 0,0 l/m W-SW 0,25 h 131 W/m 34,5 km/h (5 Bft)
21.10.2014 17:00 15,4 C 66 % 1005,1 hPa 0,0 l/m W 0,00 h 25 W/m 26,0 km/h (4 Bft)
21.10.2014 18:00 14,6 C 74 % 1004,0 hPa 0,0 l/m W-SW 0,00 h 0 W/m 27,2 km/h (4 Bft)
21.10.2014 19:00 14,3 C 80 % 1002,8 hPa 2,6 l/m SW 0,00 h 0 W/m 34,5 km/h (5 Bft)
21.10.2014 20:00 10,0 C 88 % 1004,9 hPa 3,8 l/m NW 0,00 h 0 W/m 40,6 km/h (6 Bft)
21.10.2014 21:00 6,5 C 91 % 1007,0 hPa 0,0 l/m W 0,00 h 0 W/m 29,5 km/h (5 Bft)
21.10.2014 22:00 7,2 C 89 % 1010,7 hPa 0,0 l/m W-SW 0,00 h 0 W/m 22,4 km/h (4 Bft)
21.10.2014 23:00 7,3 C 86 % 1012,8 hPa 0,0 l/m W 0,00 h 0 W/m 22,3 km/h (4 Bft)
22.10.2014 00:00 6,9 C 84 % 1013,3 hPa 0,0 l/m W-SW 0,00 h 0 W/m 19,4 km/h (3 Bft)
22.10.2014 01:00 6,2 C 85 % 1013,4 hPa 0,0 l/m W-SW 0,00 h 0 W/m 11,0 km/h (2 Bft)
22.10.2014 02:00 5,8 C 88 % 1013,6 hPa 0,4 l/m W 0,00 h 0 W/m 23,4 km/h (4 Bft)
22.10.2014 03:00 4,8 C 91 % 1013,2 hPa 0,0 l/m W 0,00 h 0 W/m 15,2 km/h (3 Bft)
22.10.2014 04:00 4,4 C 91 % 1013,2 hPa 0,0 l/m W-SW 0,00 h 0 W/m 16,8 km/h (3 Bft)
22.10.2014 05:00 4,3 C 91 % 1012,6 hPa 0,0 l/m W-SW 0,00 h 0 W/m 16,1 km/h (3 Bft)
22.10.2014 06:00 4,2 C 91 % 1013,5 hPa 0,0 l/m W 0,00 h 0 W/m 14,4 km/h (3 Bft)
22.10.2014 07:00 4,2 C 88 % 1014,5 hPa 0,4 l/m W 0,00 h 0 W/m 20,9 km/h (4 Bft)
22.10.2014 08:00 3,6 C 91 % 1015,8 hPa 0,0 l/m W 0,00 h 11 W/m 13,7 km/h (3 Bft)
22.10.2014 09:00 3,7 C 91 % 1016,9 hPa 0,0 l/m W 0,00 h 24 W/m 17,2 km/h (3 Bft)
22.10.2014 10:00 4,0 C 91 % 1017,4 hPa 0,2 l/m W 0,00 h 47 W/m 21,3 km/h (4 Bft)
22.10.2014 11:00 4,2 C 91 % 1017,6 hPa 0,0 l/m W-SW 0,00 h 40 W/m 18,9 km/h (3 Bft)
22.10.2014 12:00 4,4 C 90 % 1017,7 hPa 0,4 l/m W 0,00 h 50 W/m 20,1 km/h (4 Bft)
22.10.2014 13:00 4,6 C 90 % 1017,9 hPa 0,2 l/m W 0,00 h 121 W/m 25,5 km/h (4 Bft)
22.10.2014 14:00 4,8 C 91 % 1017,9 hPa 0,4 l/m W-NW 0,00 h 122 W/m 28,4 km/h (4 Bft)
22.10.2014 15:00 4,6 C 92 % 1018,2 hPa 0,4 l/m W 0,00 h 41 W/m 25,6 km/h (4 Bft)
22.10.2014 16:00 4,8 C 91 % 1018,1 hPa 0,2 l/m W-NW 0,00 h 48 W/m 22,4 km/h (4 Bft)
22.10.2014 17:00 5,1 C 89 % 1018,1 hPa 0,0 l/m W 0,00 h 12 W/m 22,8 km/h (4 Bft)
22.10.2014 18:00 5,1 C 89 % 1018,1 hPa 0,2 l/m W 0,00 h 5 W/m 20,9 km/h (4 Bft)
22.10.2014 19:00 4,9 C 91 % 1018,4 hPa 1,2 l/m W 0,00 h 0 W/m 17,8 km/h (3 Bft)
22.10.2014 20:00 4,5 C 94 % 1018,5 hPa 1,0 l/m W-SW 0,00 h 0 W/m 18,0 km/h (3 Bft)
22.10.2014 21:00 4,7 C 95 % 1018,5 hPa 0,6 l/m W 0,00 h 0 W/m 19,7 km/h (3 Bft)
22.10.2014 22:00 5,1 C 95 % 1018,8 hPa 0,2 l/m W-NW 0,00 h 0 W/m 23,2 km/h (4 Bft)
22.10.2014 23:00 5,5 C 94 % 1019,0 hPa 0,0 l/m W-NW 0,00 h 0 W/m 23,7 km/h (4 Bft)
23.10.2014 00:00 5,8 C 92 % 1019,4 hPa 0,0 l/m NW 0,00 h 0 W/m 19,7 km/h (3 Bft)
23.10.2014 01:00 5,9 C 91 % 1019,9 hPa 0,0 l/m W-NW 0,00 h 0 W/m 20,4 km/h (4 Bft)
23.10.2014 02:00 5,9 C 91 % 1020,4 hPa 0,0 l/m NW 0,00 h 0 W/m 22,3 km/h (4 Bft)
23.10.2014 03:00 5,7 C 91 % 1021,0 hPa 0,2 l/m W-NW 0,00 h 0 W/m 19,7 km/h (3 Bft)
23.10.2014 04:00 5,7 C 89 % 1021,3 hPa 0,0 l/m W-NW 0,00 h 0 W/m 21,4 km/h (4 Bft)
23.10.2014 05:00 5,6 C 90 % 1021,7 hPa 0,0 l/m W-NW 0,00 h 0 W/m 24,4 km/h (4 Bft)
23.10.2014 06:00 5,4 C 89 % 1022,3 hPa 0,0 l/m W-NW 0,00 h 0 W/m 20,4 km/h (4 Bft)
23.10.2014 07:00 5,6 C 88 % 1022,8 hPa 0,0 l/m W-NW 0,00 h 0 W/m 15,6 km/h (3 Bft)
23.10.2014 08:00 5,5 C 89 % 1023,3 hPa 0,0 l/m W-NW 0,00 h 13 W/m 9,9 km/h (2 Bft)
23.10.2014 09:00 5,7 C 89 % 1023,9 hPa 0,0 l/m W-NW 0,00 h 53 W/m 6,8 km/h (2 Bft)
23.10.2014 10:00 6,3 C 87 % 1024,2 hPa 0,0 l/m W-NW 0,00 h 91 W/m 10,2 km/h (2 Bft)
23.10.2014 11:00 7,0 C 84 % 1024,4 hPa 0,0 l/m W 0,00 h 101 W/m 11,8 km/h (2 Bft)
23.10.2014 12:00 7,6 C 82 % 1024,4 hPa 0,0 l/m W 0,00 h 103 W/m 11,8 km/h (2 Bft)
23.10.2014 13:00 7,8 C 85 % 1024,2 hPa 0,0 l/m W 0,00 h 75 W/m 10,5 km/h (2 Bft)
23.10.2014 14:00 8,3 C 79 % 1023,8 hPa 0,0 l/m W 0,00 h 67 W/m 7,8 km/h (2 Bft)
23.10.2014 15:00 8,2 C 82 % 1023,4 hPa 0,0 l/m W-NW 0,00 h 40 W/m 5,5 km/h (1 Bft)
23.10.2014 16:00 8,2 C 82 % 1023,5 hPa 0,0 l/m W 0,00 h 32 W/m 2,1 km/h (1 Bft)
23.10.2014 17:00 8,2 C 83 % 1023,5 hPa 0,0 l/m N 0,00 h 17 W/m 0,9 km/h (0 Bft)
23.10.2014 18:00 8,1 C 86 % 1023,5 hPa 0,0 l/m W-SW 0,00 h 5 W/m 5,3 km/h (1 Bft)
23.10.2014 19:00 7,4 C 90 % 1023,6 hPa 0,0 l/m SW 0,00 h 0 W/m 11,0 km/h (2 Bft)
23.10.2014 20:00 6,7 C 91 % 1023,5 hPa 0,0 l/m SW 0,00 h 0 W/m 10,6 km/h (2 Bft)
23.10.2014 21:00 6,4 C 92 % 1023,6 hPa 0,0 l/m S-SW 0,00 h 0 W/m 8,4 km/h (2 Bft)
23.10.2014 22:00 6,3 C 92 % 1023,7 hPa 0,0 l/m S-SW 0,00 h 0 W/m 5,3 km/h (1 Bft)
23.10.2014 23:00 6,2 C 92 % 1023,7 hPa 0,0 l/m N 0,00 h 0 W/m 2,0 km/h (1 Bft)
24.10.2014 00:00 6,2 C 92 % 1023,7 hPa 0,0 l/m N 0,00 h 0 W/m 1,3 km/h (1 Bft)
24.10.2014 01:00 6,1 C 92 % 1023,7 hPa 0,0 l/m N 0,00 h 0 W/m 1,2 km/h (1 Bft)
24.10.2014 02:00 5,9 C 92 % 1023,5 hPa 0,0 l/m N 0,00 h 0 W/m 0,0 km/h (0 Bft)
24.10.2014 03:00 5,2 C 91 % 1023,0 hPa 0,0 l/m S-SW 0,00 h 0 W/m 1,6 km/h (1 Bft)
24.10.2014 04:00 4,2 C 93 % 1022,3 hPa 0,0 l/m W-SW 0,00 h 0 W/m 3,2 km/h (1 Bft)
24.10.2014 05:00 3,5 C 93 % 1022,3 hPa 0,0 l/m N 0,00 h 0 W/m 0,1 km/h (0 Bft)
24.10.2014 06:00 2,8 C 93 % 1022,5 hPa 0,0 l/m N 0,00 h 0 W/m 0,0 km/h (0 Bft)
24.10.2014 07:00 3,3 C 96 % 1022,1 hPa 0,0 l/m N 0,00 h 5 W/m 0,5 km/h (0 Bft)
24.10.2014 08:00 3,3 C 96 % 1022,3 hPa 0,0 l/m W-SW 0,00 h 27 W/m 2,7 km/h (1 Bft)
24.10.2014 09:00 3,6 C 97 % 1022,4 hPa 0,0 l/m NW 0,50 h 124 W/m 7,0 km/h (2 Bft)
24.10.2014 10:00 4,8 C 97 % 1022,6 hPa 0,0 l/m NW 0,42 h 171 W/m 6,1 km/h (2 Bft)
24.10.2014 11:00 6,6 C 96 % 1022,3 hPa 0,0 l/m NW 0,00 h 132 W/m 6,5 km/h (2 Bft)
24.10.2014 12:00 7,4 C 90 % 1022,0 hPa 0,0 l/m O-NO 0,00 h 153 W/m 16,2 km/h (3 Bft)
24.10.2014 13:00 8,4 C 85 % 1021,5 hPa 0,0 l/m O-NO 0,25 h 242 W/m 14,0 km/h (3 Bft)
24.10.2014 14:00 9,4 C 80 % 1020,8 hPa 0,0 l/m O-SO 0,83 h 435 W/m 16,0 km/h (3 Bft)
24.10.2014 15:00 10,3 C 76 % 1020,4 hPa 0,0 l/m O-SO 0,50 h 257 W/m 15,2 km/h (3 Bft)
24.10.2014 16:00 10,3 C 77 % 1020,2 hPa 0,0 l/m O-SO 0,33 h 141 W/m 12,8 km/h (3 Bft)
24.10.2014 17:00 9,5 C 79 % 1019,9 hPa 0,0 l/m O-SO 0,17 h 50 W/m 9,1 km/h (2 Bft)
24.10.2014 18:00 8,8 C 80 % 1019,6 hPa 0,0 l/m O-SO 0,00 h 5 W/m 4,0 km/h (1 Bft)
24.10.2014 19:00 7,4 C 82 % 1019,7 hPa 0,0 l/m N 0,00 h 0 W/m 0,5 km/h (0 Bft)
24.10.2014 20:00 5,7 C 87 % 1019,7 hPa 0,0 l/m N 0,00 h 0 W/m 0,8 km/h (0 Bft)
24.10.2014 21:00 4,8 C 89 % 1019,7 hPa 0,0 l/m N 0,00 h 0 W/m 0,7 km/h (0 Bft)
24.10.2014 22:00 4,3 C 91 % 1020,0 hPa 0,0 l/m N 0,00 h 0 W/m 0,7 km/h (0 Bft)
24.10.2014 23:00 3,8 C 91 % 1019,9 hPa 0,0 l/m N 0,00 h 0 W/m 0,0 km/h (0 Bft)
25.10.2014 00:00 3,1 C 91 % 1019,7 hPa 0,0 l/m N 0,00 h 0 W/m 0,0 km/h (0 Bft)
25.10.2014 01:00 2,5 C 92 % 1019,7 hPa 0,0 l/m N 0,00 h 0 W/m 0,0 km/h (0 Bft)
25.10.2014 02:00 2,2 C 93 % 1019,7 hPa 0,0 l/m N 0,00 h 0 W/m 0,0 km/h (0 Bft)
25.10.2014 03:00 1,9 C 93 % 1019,2 hPa 0,0 l/m N 0,00 h 0 W/m 0,0 km/h (0 Bft)
25.10.2014 04:00 1,9 C 94 % 1019,2 hPa 0,0 l/m N 0,00 h 0 W/m 0,0 km/h (0 Bft)
25.10.2014 05:00 2,5 C 95 % 1019,4 hPa 0,0 l/m N 0,00 h 0 W/m 0,0 km/h (0 Bft)
25.10.2014 06:00 2,9 C 96 % 1019,7 hPa 0,0 l/m N 0,00 h 0 W/m 0,1 km/h (0 Bft)
25.10.2014 07:00 3,3 C 96 % 1019,8 hPa 0,0 l/m N 0,00 h 5 W/m 1,1 km/h (0 Bft)
25.10.2014 08:00 3,6 C 97 % 1020,1 hPa 0,4 l/m N 0,00 h 12 W/m 0,1 km/h (0 Bft)
25.10.2014 09:00 4,6 C 97 % 1020,4 hPa 0,0 l/m S-SO 0,00 h 46 W/m 3,5 km/h (1 Bft)
25.10.2014 10:00 6,7 C 98 % 1020,7 hPa 0,0 l/m S-SO 0,00 h 119 W/m 3,9 km/h (1 Bft)
25.10.2014 11:00 8,2 C 96 % 1020,6 hPa 0,0 l/m S-SW 0,00 h 153 W/m 4,5 km/h (1 Bft)
25.10.2014 12:00 9,8 C 92 % 1020,8 hPa 0,0 l/m SW 0,00 h 177 W/m 4,5 km/h (1 Bft)
25.10.2014 13:00 10,1 C 92 % 1020,6 hPa 0,0 l/m W 0,00 h 100 W/m 6,4 km/h (2 Bft)
25.10.2014 14:00 10,3 C 91 % 1020,4 hPa 0,0 l/m W-SW 0,00 h 95 W/m 6,0 km/h (2 Bft)
25.10.2014 15:00 10,6 C 90 % 1020,3 hPa 0,0 l/m W-SW 0,00 h 93 W/m 5,7 km/h (1 Bft)
25.10.2014 16:00 10,9 C 88 % 1020,6 hPa 0,0 l/m W-SW 0,00 h 58 W/m 5,1 km/h (1 Bft)
25.10.2014 17:00 10,6 C 89 % 1021,0 hPa 0,2 l/m N 0,00 h 19 W/m 1,9 km/h (1 Bft)
25.10.2014 18:00 10,3 C 91 % 1021,5 hPa 0,0 l/m N 0,00 h 5 W/m 0,0 km/h (0 Bft)
25.10.2014 19:00 9,9 C 92 % 1022,2 hPa 0,0 l/m N 0,00 h 0 W/m 0,0 km/h (0 Bft)
25.10.2014 20:00 9,5 C 93 % 1022,4 hPa 0,0 l/m N 0,00 h 0 W/m 0,0 km/h (0 Bft)
25.10.2014 21:00 9,2 C 94 % 1022,7 hPa 0,0 l/m N 0,00 h 0 W/m 0,0 km/h (0 Bft)
25.10.2014 22:00 8,9 C 94 % 1023,1 hPa 0,0 l/m N 0,00 h 0 W/m 0,0 km/h (0 Bft)
25.10.2014 23:00 8,7 C 95 % 1023,3 hPa 0,0 l/m N 0,00 h 0 W/m 0,0 km/h (0 Bft)
26.10.2014 00:00 8,6 C 95 % 1023,5 hPa 0,0 l/m N 0,00 h 0 W/m 0,0 km/h (0 Bft)
26.10.2014 01:00 8,4 C 96 % 1023,8 hPa 0,0 l/m W-SW 0,00 h 0 W/m 0,7 km/h (0 Bft)
26.10.2014 02:00 8,3 C 96 % 1024,1 hPa 0,0 l/m N 0,00 h 0 W/m 0,1 km/h (0 Bft)
26.10.2014 03:00 7,6 C 96 % 1024,0 hPa 0,0 l/m N 0,00 h 0 W/m 0,0 km/h (0 Bft)
26.10.2014 04:00 7,1 C 96 % 1024,3 hPa 0,0 l/m N 0,00 h 0 W/m 0,0 km/h (0 Bft)
26.10.2014 05:00 7,3 C 97 % 1024,5 hPa 0,0 l/m N 0,00 h 0 W/m 0,1 km/h (0 Bft)
26.10.2014 06:00 7,5 C 97 % 1024,6 hPa 0,0 l/m N 0,00 h 0 W/m 0,7 km/h (0 Bft)
26.10.2014 07:00 7,7 C 98 % 1025,0 hPa 0,0 l/m N 0,00 h 18 W/m 0,9 km/h (0 Bft)
26.10.2014 08:00 8,1 C 98 % 1025,3 hPa 0,0 l/m W-SW 0,00 h 50 W/m 1,1 km/h (0 Bft)
26.10.2014 09:00 9,3 C 97 % 1025,4 hPa 0,0 l/m W-SW 0,33 h 169 W/m 3,7 km/h (1 Bft)
26.10.2014 10:00 11,8 C 89 % 1025,4 hPa 0,0 l/m W-SW 0,75 h 355 W/m 8,4 km/h (2 Bft)
26.10.2014 11:00 14,0 C 76 % 1025,2 hPa 0,0 l/m O-SO 1,00 h 548 W/m 12,8 km/h (3 Bft)
26.10.2014 12:00 14,1 C 76 % 1024,5 hPa 0,0 l/m O-NO 0,92 h 322 W/m 10,6 km/h (2 Bft)
26.10.2014 13:00 14,8 C 73 % 1023,9 hPa 0,2 l/m O 1,00 h 415 W/m 11,7 km/h (2 Bft)
26.10.2014 14:00 15,5 C 71 % 1023,5 hPa 0,0 l/m O-NO 1,00 h 370 W/m 12,9 km/h (3 Bft)
26.10.2014 15:00 15,2 C 72 % 1023,5 hPa 0,0 l/m O-NO 1,00 h 244 W/m 13,8 km/h (3 Bft)
26.10.2014 16:00 14,3 C 75 % 1023,7 hPa 0,0 l/m O-NO 0,75 h 76 W/m 10,5 km/h (2 Bft)
26.10.2014 17:00 13,2 C 77 % 1024,0 hPa 0,0 l/m N 0,00 h 8 W/m 2,5 km/h (1 Bft)
26.10.2014 18:00 11,2 C 81 % 1024,5 hPa 0,0 l/m N 0,00 h 0 W/m 2,3 km/h (1 Bft)
26.10.2014 19:00 9,5 C 86 % 1024,5 hPa 0,0 l/m N 0,00 h 0 W/m 2,8 km/h (1 Bft)
26.10.2014 20:00 8,6 C 90 % 1024,5 hPa 0,0 l/m NO 0,00 h 0 W/m 3,1 km/h (1 Bft)
26.10.2014 21:00 7,9 C 92 % 1024,8 hPa 0,0 l/m NO 0,00 h 0 W/m 5,5 km/h (1 Bft)
26.10.2014 22:00 7,4 C 94 % 1024,7 hPa 0,0 l/m N-NO 0,00 h 0 W/m 7,4 km/h (2 Bft)
26.10.2014 23:00 7,6 C 96 % 1024,4 hPa 0,0 l/m N-NO 0,00 h 0 W/m 7,6 km/h (2 Bft)
Min-Datum _ 25.10.14 21.10.14 21.10.14 - - - - 20.10.14
_ Min-Zeit 03:50 16:15 19:40 - - - - 00:20
Minimum _ 1,7 C 60 % 1002,3 hPa - - - - 0,0 km/h (0 Bft)
Max-Datum _ 20.10.14 22.10.14 26.10.14 21.10.14 - 20.10.14 21.10.14 21.10.14
_ Max-Zeit 15:55 22:05 09:55 03:00 - 09:05 12:10 20:40
Maximum _ 20,0 C 100 % 1025,6 hPa 4,4 l/m - 0,08 h 645 W/m 74,0 km/h
NW (8 Bft)
Durchschnitt _ 9,0 C 89 % 1019,1 hPa #25,8 l/m W-SW #15:10 h 127 W/m 10,1 km/h (2 Bft)